createdAt,value
2024-05-09T00:00:42.021Z,0.0000
2024-05-09T00:01:41.882Z,0.0000
2024-05-09T00:02:43.998Z,0.0000
2024-05-09T00:03:46.206Z,0.0000
2024-05-09T00:04:48.360Z,0.0000
2024-05-09T00:05:50.550Z,0.0000
2024-05-09T00:06:52.655Z,0.0000
2024-05-09T00:07:54.757Z,0.0000
2024-05-09T00:08:56.847Z,0.0000
2024-05-09T00:09:58.931Z,0.0000
2024-05-09T00:11:01.073Z,0.0000
2024-05-09T00:12:03.221Z,0.0000
2024-05-09T00:13:05.547Z,0.0000
2024-05-09T00:14:07.695Z,0.0000
2024-05-09T00:15:09.782Z,0.0000
2024-05-09T00:16:11.869Z,0.0000
2024-05-09T00:17:14.055Z,0.0000
2024-05-09T00:18:16.398Z,0.0000
2024-05-09T00:19:18.698Z,0.0000
2024-05-09T00:20:28.052Z,0.0000
2024-05-09T00:21:21.391Z,0.0000
2024-05-09T00:22:23.447Z,0.0000
2024-05-09T00:23:25.608Z,0.0000
2024-05-09T00:24:27.718Z,0.0000
2024-05-09T00:25:29.789Z,0.0000
2024-05-09T00:26:32.014Z,0.0000
2024-05-09T00:27:34.072Z,0.0000
2024-05-09T00:28:36.199Z,0.0000
2024-05-09T00:29:38.291Z,0.0000
2024-05-09T00:30:40.335Z,0.0000
2024-05-09T00:31:42.481Z,0.0000
2024-05-09T00:32:44.682Z,0.0000
2024-05-09T00:33:46.904Z,0.0000
2024-05-09T00:34:49.057Z,0.0000
2024-05-09T00:35:51.096Z,0.0000
2024-05-09T00:36:53.182Z,0.0000
2024-05-09T00:37:55.352Z,0.0000
2024-05-09T00:38:57.402Z,0.0000
2024-05-09T00:39:59.461Z,0.0000
2024-05-09T00:41:01.560Z,0.0000
2024-05-09T00:42:03.629Z,0.0000
2024-05-09T00:43:05.724Z,0.0000
2024-05-09T00:44:07.842Z,0.0000
2024-05-09T00:45:09.884Z,0.0000
2024-05-09T00:46:11.971Z,0.0000
2024-05-09T00:47:14.145Z,0.0000
2024-05-09T00:48:18.863Z,0.0000
2024-05-09T00:49:18.114Z,0.0000
2024-05-09T00:50:29.389Z,0.0000
2024-05-09T00:51:20.974Z,0.0000
2024-05-09T00:52:23.065Z,0.0000
2024-05-09T00:53:25.185Z,0.0000
2024-05-09T00:54:27.197Z,0.0000
2024-05-09T00:55:29.291Z,0.0000
2024-05-09T00:56:31.530Z,0.0000
2024-05-09T00:57:33.616Z,0.0000
2024-05-09T00:58:35.696Z,0.0000
2024-05-09T00:59:37.811Z,0.0000
2024-05-09T01:00:41.256Z,0.0000
2024-05-09T01:01:41.527Z,0.0000
2024-05-09T01:02:43.737Z,0.0000
2024-05-09T01:03:48.717Z,0.0000
2024-05-09T01:04:47.576Z,0.0000
2024-05-09T01:05:49.858Z,0.0000
2024-05-09T01:06:51.961Z,0.0000
2024-05-09T01:07:54.150Z,0.0000
2024-05-09T01:08:56.206Z,0.0000
2024-05-09T01:09:58.289Z,0.0000
2024-05-09T01:11:00.472Z,0.0000
2024-05-09T01:12:02.705Z,0.0000
2024-05-09T01:13:04.906Z,0.0000
2024-05-09T01:14:07.142Z,0.0000
2024-05-09T01:15:09.223Z,0.0000
2024-05-09T01:16:11.291Z,0.0000
2024-05-09T01:17:13.459Z,0.0000
2024-05-09T01:18:15.885Z,0.0000
2024-05-09T01:19:18.149Z,0.0000
2024-05-09T01:20:27.826Z,0.0000
2024-05-09T01:21:20.922Z,0.0000
2024-05-09T01:22:23.029Z,0.0000
2024-05-09T01:23:25.235Z,0.0000
2024-05-09T01:24:27.265Z,0.0000
2024-05-09T01:25:29.340Z,0.0000
2024-05-09T01:26:31.494Z,0.0000
2024-05-09T01:27:33.544Z,0.0000
2024-05-09T01:28:35.678Z,0.0000
2024-05-09T01:29:37.834Z,0.0000
2024-05-09T01:30:39.915Z,0.0000
2024-05-09T01:31:42.030Z,0.0000
2024-05-09T01:32:44.164Z,0.0000
2024-05-09T01:33:46.693Z,0.0000
2024-05-09T01:34:46.506Z,0.0000
2024-05-09T01:35:48.581Z,0.0000
2024-05-09T01:36:50.698Z,0.0000
2024-05-09T01:37:52.774Z,0.0000
2024-05-09T01:38:54.868Z,0.0000
2024-05-09T01:39:56.962Z,0.0000
2024-05-09T01:40:59.067Z,0.0000
2024-05-09T01:42:01.107Z,0.0000
2024-05-09T01:43:03.216Z,0.0000
2024-05-09T01:44:05.312Z,0.0000
2024-05-09T01:45:07.371Z,0.0000
2024-05-09T01:46:09.444Z,0.0000
2024-05-09T01:47:11.735Z,0.0000
2024-05-09T01:48:11.891Z,0.0000
2024-05-09T01:49:14.365Z,0.0000
2024-05-09T01:51:15.853Z,0.0000
2024-05-09T01:52:17.909Z,0.0000
2024-05-09T01:53:20.103Z,0.0000
2024-05-09T01:54:22.162Z,0.0000
2024-05-09T01:55:24.357Z,0.0000
2024-05-09T01:56:26.446Z,0.0000
2024-05-09T01:57:28.635Z,0.0000
2024-05-09T01:58:30.731Z,0.0000
2024-05-09T01:59:32.897Z,0.0000
2024-05-09T02:00:40.022Z,0.0000
2024-05-09T02:01:55.592Z,0.0000
2024-05-09T02:02:36.224Z,0.0000
2024-05-09T02:03:38.531Z,0.0000
2024-05-09T02:04:40.791Z,0.0000
2024-05-09T02:05:42.978Z,0.0000
2024-05-09T02:06:42.916Z,0.0000
2024-05-09T02:07:46.415Z,0.0000
2024-05-09T02:08:49.613Z,0.0000
2024-05-09T02:09:53.058Z,0.0000
2024-05-09T02:10:56.366Z,0.0000
2024-05-09T02:11:59.715Z,0.0000
2024-05-09T02:13:02.950Z,0.0000
2024-05-09T02:14:06.311Z,0.0000
2024-05-09T02:15:09.508Z,0.0000
2024-05-09T02:16:12.728Z,0.0000
2024-05-09T02:17:16.128Z,0.0000
2024-05-09T02:18:17.029Z,0.0000
2024-05-09T02:19:16.899Z,0.0000
2024-05-09T02:20:30.048Z,0.0000
2024-05-09T02:21:22.265Z,0.0000
2024-05-09T02:22:25.465Z,0.0000
2024-05-09T02:23:28.688Z,0.0000
2024-05-09T02:24:31.924Z,0.0000
2024-05-09T02:25:35.128Z,0.0000
2024-05-09T02:26:38.368Z,0.0000
2024-05-09T02:27:41.606Z,0.0000
2024-05-09T02:28:44.827Z,0.0000
2024-05-09T02:29:48.080Z,0.0000
2024-05-09T02:30:51.272Z,0.0000
2024-05-09T02:31:54.574Z,0.0000
2024-05-09T02:32:57.884Z,0.0000
2024-05-09T02:34:01.499Z,0.0000
2024-05-09T02:35:01.572Z,0.0000
2024-05-09T02:36:04.946Z,0.0000
2024-05-09T02:37:08.177Z,0.0000
2024-05-09T02:38:11.491Z,0.0000
2024-05-09T02:39:11.436Z,0.0000
2024-05-09T02:40:18.119Z,0.0000
2024-05-09T02:41:16.794Z,0.0000
2024-05-09T02:42:18.115Z,0.0000
2024-05-09T02:43:21.279Z,0.0000
2024-05-09T02:44:24.591Z,0.0000
2024-05-09T02:45:27.833Z,0.0000
2024-05-09T02:46:27.905Z,0.0000
2024-05-09T02:47:31.183Z,0.0000
2024-05-09T02:48:34.561Z,0.0000
2024-05-09T02:49:37.818Z,0.0000
2024-05-09T02:50:41.297Z,0.0000
2024-05-09T02:51:41.176Z,0.0000
2024-05-09T02:52:44.381Z,0.0000
2024-05-09T02:53:47.646Z,0.0000
2024-05-09T02:54:50.943Z,0.0000
2024-05-09T02:55:54.158Z,0.0000
2024-05-09T02:56:57.342Z,0.0000
2024-05-09T02:58:00.587Z,0.0000
2024-05-09T02:59:03.875Z,0.0000
2024-05-09T03:00:12.101Z,0.0000
2024-05-09T03:01:09.175Z,0.0000
2024-05-09T03:02:12.498Z,0.0000
2024-05-09T03:03:16.080Z,0.0000
2024-05-09T03:04:16.151Z,0.0000
2024-05-09T03:05:19.541Z,0.0000
2024-05-09T03:06:22.725Z,0.0000
2024-05-09T03:07:26.220Z,0.0000
2024-05-09T03:08:26.164Z,0.0000
2024-05-09T03:09:29.337Z,0.0000
2024-05-09T03:10:35.852Z,0.0000
2024-05-09T03:11:34.815Z,0.0000
2024-05-09T03:12:37.859Z,0.0000
2024-05-09T03:13:35.152Z,0.0000
2024-05-09T03:14:38.352Z,0.0000
2024-05-09T03:15:41.618Z,0.0000
2024-05-09T03:16:44.823Z,0.0000
2024-05-09T03:17:48.162Z,0.0000
2024-05-09T03:18:48.041Z,0.0000
2024-05-09T03:19:51.300Z,0.0000
2024-05-09T03:20:54.590Z,0.0000
2024-05-09T03:21:57.825Z,0.0000
2024-05-09T03:23:01.053Z,0.0000
2024-05-09T03:24:04.299Z,0.0000
2024-05-09T03:25:05.563Z,0.0000
2024-05-09T03:26:08.856Z,0.0000
2024-05-09T03:27:12.020Z,0.0000
2024-05-09T03:28:15.312Z,0.0000
2024-05-09T03:29:15.344Z,0.0000
2024-05-09T03:30:29.552Z,0.0000
2024-05-09T03:31:20.731Z,0.0000
2024-05-09T03:32:24.121Z,0.0000
2024-05-09T03:33:27.518Z,0.0000
2024-05-09T03:34:30.948Z,0.0000
2024-05-09T03:35:34.207Z,0.0000
2024-05-09T03:36:37.394Z,0.0000
2024-05-09T03:37:40.599Z,0.0000
2024-05-09T03:38:43.876Z,0.0000
2024-05-09T03:39:47.046Z,0.0000
2024-05-09T03:40:50.890Z,0.0000
2024-05-09T03:41:51.020Z,0.0000
2024-05-09T03:42:54.230Z,0.0000
2024-05-09T03:43:58.354Z,0.0000
2024-05-09T03:44:58.052Z,0.0000
2024-05-09T03:46:01.284Z,0.0000
2024-05-09T03:47:04.537Z,0.0000
2024-05-09T03:48:08.096Z,0.0000
2024-05-09T03:49:08.088Z,0.0000
2024-05-09T03:50:18.316Z,0.0000
2024-05-09T03:51:13.549Z,0.0000
2024-05-09T03:52:16.790Z,0.0000
2024-05-09T03:53:20.144Z,0.0000
2024-05-09T03:54:23.317Z,0.0000
2024-05-09T03:55:26.544Z,0.0000
2024-05-09T03:56:29.776Z,0.0000
2024-05-09T03:57:32.996Z,0.0000
2024-05-09T03:58:36.231Z,5.3125
2024-05-09T03:59:39.588Z,5.6250
2024-05-09T04:00:42.845Z,5.6250
2024-05-09T04:01:46.196Z,5.6250
2024-05-09T04:02:49.513Z,8.4375
2024-05-09T04:03:52.845Z,11.2500
2024-05-09T04:04:56.116Z,11.2500
2024-05-09T04:05:59.375Z,11.2500
2024-05-09T04:07:02.563Z,11.2500
2024-05-09T04:08:05.799Z,15.9375
2024-05-09T04:09:05.850Z,16.8750
2024-05-09T04:10:13.885Z,16.8750
2024-05-09T04:11:11.232Z,18.6328
2024-05-09T04:12:14.635Z,22.5000
2024-05-09T04:13:17.843Z,22.5000
2024-05-09T04:14:21.118Z,22.5000
2024-05-09T04:15:24.355Z,24.6875
2024-05-09T04:16:24.416Z,29.7794
2024-05-09T04:17:27.740Z,33.7500
2024-05-09T04:18:31.091Z,33.7500
2024-05-09T04:19:34.535Z,37.1875
2024-05-09T04:20:40.364Z,39.3750
2024-05-09T04:21:40.951Z,39.3750
2024-05-09T04:22:44.267Z,41.2500
2024-05-09T04:23:47.547Z,39.3750
2024-05-09T04:24:50.786Z,39.3750
2024-05-09T04:25:54.839Z,39.3750
2024-05-09T04:26:54.558Z,39.3750
2024-05-09T04:27:57.830Z,39.3750
2024-05-09T04:29:01.086Z,39.3750
2024-05-09T04:30:06.098Z,39.3750
2024-05-09T04:31:07.459Z,39.3750
2024-05-09T04:32:10.817Z,35.6250
2024-05-09T04:33:14.943Z,33.7500
2024-05-09T04:34:15.216Z,38.3824
2024-05-09T04:35:18.501Z,38.4375
2024-05-09T04:36:21.711Z,33.7500
2024-05-09T04:37:24.976Z,35.6250
2024-05-09T04:38:28.221Z,39.3750
2024-05-09T04:39:31.438Z,39.3750
2024-05-09T04:40:36.698Z,39.3750
2024-05-09T04:41:37.281Z,43.6765
2024-05-09T04:42:40.485Z,45.0000
2024-05-09T04:43:43.712Z,45.0000
2024-05-09T04:44:46.953Z,45.0000
2024-05-09T04:45:50.180Z,45.0000
2024-05-09T04:46:53.512Z,42.1875
2024-05-09T04:47:56.966Z,45.0000
2024-05-09T04:48:56.915Z,45.0000
2024-05-09T04:50:00.203Z,48.4375
2024-05-09T04:51:03.709Z,50.6250
2024-05-09T04:52:03.498Z,50.6250
2024-05-09T04:53:07.613Z,50.6250
2024-05-09T04:54:10.738Z,50.6250
2024-05-09T04:55:09.178Z,50.6250
2024-05-09T04:56:12.495Z,51.5625
2024-05-09T04:57:15.708Z,56.2500
2024-05-09T04:58:18.906Z,60.0000
2024-05-09T04:59:22.296Z,67.1875
2024-05-09T05:00:32.044Z,70.0000
2024-05-09T05:01:27.677Z,70.6641
2024-05-09T05:02:30.951Z,67.5000
2024-05-09T05:03:34.292Z,70.0000
2024-05-09T05:04:37.635Z,73.1250
2024-05-09T05:05:41.361Z,72.5000
2024-05-09T05:06:41.326Z,67.5000
2024-05-09T05:07:44.592Z,67.1875
2024-05-09T05:08:47.823Z,59.6875
2024-05-09T05:09:51.039Z,47.5000
2024-05-09T05:10:54.437Z,45.0000
2024-05-09T05:11:57.831Z,45.0000
2024-05-09T05:13:01.083Z,45.0000
2024-05-09T05:14:04.394Z,45.9375
2024-05-09T05:15:07.580Z,50.6250
2024-05-09T05:16:10.802Z,53.7500
2024-05-09T05:17:14.091Z,53.7500
2024-05-09T05:18:17.463Z,61.2500
2024-05-09T05:19:17.839Z,61.8750
2024-05-09T05:20:27.038Z,71.1397
2024-05-09T05:21:19.861Z,88.9453
2024-05-09T05:22:23.094Z,95.6250
2024-05-09T05:23:26.409Z,103.4375
2024-05-09T05:24:29.642Z,110.9375
2024-05-09T05:25:32.865Z,112.5000
2024-05-09T05:26:36.167Z,100.0000
2024-05-09T05:27:39.417Z,85.3125
2024-05-09T05:28:42.652Z,91.5625
2024-05-09T05:29:45.915Z,89.3750
2024-05-09T05:30:49.126Z,86.5625
2024-05-09T05:31:52.443Z,78.4375
2024-05-09T05:32:55.889Z,62.5000
2024-05-09T05:33:55.923Z,54.9265
2024-05-09T05:34:59.213Z,53.7500
2024-05-09T05:36:02.450Z,56.2500
2024-05-09T05:37:05.648Z,62.1875
2024-05-09T05:38:09.004Z,70.6250
2024-05-09T05:39:09.161Z,85.0368
2024-05-09T05:40:20.629Z,100.6250
2024-05-09T05:41:14.608Z,133.5938
2024-05-09T05:42:17.850Z,130.3125
2024-05-09T05:43:21.067Z,119.3750
2024-05-09T05:44:24.364Z,105.3125
2024-05-09T05:45:27.609Z,130.3125
2024-05-09T05:46:30.841Z,149.6875
2024-05-09T05:47:34.323Z,136.8750
2024-05-09T05:48:34.331Z,125.4044
2024-05-09T05:49:34.290Z,110.5147
2024-05-09T05:50:38.591Z,98.7500
2024-05-09T05:51:38.616Z,94.9632
2024-05-09T05:52:41.841Z,87.8125
2024-05-09T05:53:45.137Z,88.4375
2024-05-09T05:54:48.348Z,106.5625
2024-05-09T05:55:51.628Z,99.6875
2024-05-09T05:56:54.895Z,110.9375
2024-05-09T05:57:58.129Z,111.5625
2024-05-09T05:59:01.425Z,107.5000
2024-05-09T06:00:09.233Z,103.4375
2024-05-09T06:01:06.814Z,108.2812
2024-05-09T06:02:10.236Z,105.6250
2024-05-09T06:03:14.290Z,90.0000
2024-05-09T06:04:14.322Z,87.0221
2024-05-09T06:05:17.605Z,101.8750
2024-05-09T06:06:21.024Z,110.6250
2024-05-09T06:07:24.198Z,107.8125
2024-05-09T06:08:30.256Z,130.3125
2024-05-09T06:09:30.374Z,165.7721
2024-05-09T06:10:38.742Z,176.5625
2024-05-09T06:11:35.803Z,180.0000
2024-05-09T06:12:39.124Z,180.0000
2024-05-09T06:13:42.338Z,178.4375
2024-05-09T06:14:45.573Z,179.3750
2024-05-09T06:15:48.976Z,197.8125
2024-05-09T06:16:54.057Z,203.7500
2024-05-09T06:17:54.595Z,204.1544
2024-05-09T06:18:54.602Z,223.6765
2024-05-09T06:19:54.884Z,244.1912
2024-05-09T06:20:55.091Z,252.1324
2024-05-09T06:21:58.308Z,255.0000
2024-05-09T06:23:01.671Z,255.6250
2024-05-09T06:24:06.778Z,249.6875
2024-05-09T06:25:06.536Z,289.5221
2024-05-09T06:26:09.845Z,343.4375
2024-05-09T06:27:13.038Z,355.3125
2024-05-09T06:28:16.363Z,356.8750
2024-05-09T06:29:19.601Z,382.5000
2024-05-09T06:30:30.115Z,421.8750
2024-05-09T06:31:25.005Z,422.9297
2024-05-09T06:32:28.348Z,414.3750
2024-05-09T06:33:31.764Z,441.8750
2024-05-09T06:34:35.082Z,496.2500
2024-05-09T06:35:38.521Z,459.6875
2024-05-09T06:36:38.331Z,499.6324
2024-05-09T06:37:41.615Z,527.5000
2024-05-09T06:38:44.931Z,490.3125
2024-05-09T06:39:48.145Z,510.3125
2024-05-09T06:40:51.427Z,553.7500
2024-05-09T06:41:51.388Z,451.3235
2024-05-09T06:42:54.621Z,428.1250
2024-05-09T06:43:57.962Z,421.8750
2024-05-09T06:45:01.152Z,421.8750
2024-05-09T06:46:04.376Z,417.1875
2024-05-09T06:47:07.785Z,409.6875
2024-05-09T06:48:11.267Z,438.7500
2024-05-09T06:49:11.412Z,448.6765
2024-05-09T06:50:20.153Z,489.3750
2024-05-09T06:51:13.742Z,585.3516
2024-05-09T06:52:16.962Z,745.9375
2024-05-09T06:53:20.380Z,685.0000
2024-05-09T06:54:23.711Z,511.8750
2024-05-09T06:55:26.939Z,468.4375
2024-05-09T06:56:30.358Z,395.0000
2024-05-09T06:57:33.561Z,311.5625
2024-05-09T06:58:36.908Z,295.9375
2024-05-09T06:59:40.268Z,346.5625
2024-05-09T07:00:43.633Z,340.0000
2024-05-09T07:01:46.920Z,285.3125
2024-05-09T07:02:50.349Z,252.8125
2024-05-09T07:03:53.663Z,232.8125
2024-05-09T07:04:57.018Z,230.6250
2024-05-09T07:05:56.938Z,242.2059
2024-05-09T07:07:00.212Z,221.5625
2024-05-09T07:08:03.526Z,201.5625
2024-05-09T07:09:06.768Z,188.4375
2024-05-09T07:10:14.990Z,211.2500
2024-05-09T07:11:12.229Z,251.3672
2024-05-09T07:12:15.539Z,236.2500
2024-05-09T07:13:18.890Z,243.7500
2024-05-09T07:14:22.194Z,234.6875
2024-05-09T07:15:25.395Z,221.8750
2024-05-09T07:16:28.622Z,218.7500
2024-05-09T07:17:32.088Z,200.3125
2024-05-09T07:18:35.508Z,185.6250
2024-05-09T07:19:35.515Z,175.3676
2024-05-09T07:20:38.807Z,182.5000
2024-05-09T07:21:42.059Z,221.8750
2024-05-09T07:22:45.410Z,310.3125
2024-05-09T07:23:48.723Z,384.0625
2024-05-09T07:24:52.031Z,371.5625
2024-05-09T07:25:55.321Z,350.6250
2024-05-09T07:26:58.540Z,402.1875
2024-05-09T07:28:01.899Z,529.3750
2024-05-09T07:29:05.161Z,569.6875
2024-05-09T07:30:09.424Z,549.0625
2024-05-09T07:31:11.277Z,518.1617
2024-05-09T07:32:14.730Z,481.5625
2024-05-09T07:33:14.757Z,457.9412
2024-05-09T07:34:14.830Z,440.0735
2024-05-09T07:35:14.664Z,430.8088
2024-05-09T07:36:17.851Z,425.0000
2024-05-09T07:37:21.075Z,435.6250
2024-05-09T07:38:24.490Z,425.6250
2024-05-09T07:39:27.731Z,402.8125
2024-05-09T07:40:35.966Z,385.3125
2024-05-09T07:41:33.385Z,357.8906
2024-05-09T07:42:36.569Z,333.1250
2024-05-09T07:43:39.804Z,352.8125
2024-05-09T07:44:43.165Z,367.1875
2024-05-09T07:47:48.609Z,428.7500
2024-05-09T07:49:13.573Z,403.9453
2024-05-09T07:52:45.973Z,379.1912
2024-05-09T07:53:22.088Z,365.9766
2024-05-09T07:53:36.082Z,355.0781
2024-05-09T07:54:04.412Z,328.7109
2024-05-09T07:55:04.708Z,311.0294
2024-05-09T07:56:09.359Z,330.0000
2024-05-09T07:57:09.798Z,365.2941
2024-05-09T07:58:13.151Z,445.6250
2024-05-09T07:59:16.433Z,484.3750
2024-05-09T08:00:23.734Z,490.6250
2024-05-09T08:01:22.062Z,474.2578
2024-05-09T08:02:22.256Z,444.3750
2024-05-09T08:03:22.368Z,447.3529
2024-05-09T08:04:26.778Z,482.5000
2024-05-09T08:05:26.753Z,507.2426
2024-05-09T08:06:30.087Z,532.1875
2024-05-09T08:07:33.426Z,562.1875
2024-05-09T08:08:36.621Z,563.4375
2024-05-09T08:09:39.976Z,545.9375
2024-05-09T08:10:43.502Z,522.1875
2024-05-09T08:11:43.386Z,519.8162
2024-05-09T08:12:46.592Z,510.9375
2024-05-09T08:13:49.857Z,526.5625
2024-05-09T08:14:53.270Z,574.0625
2024-05-09T08:15:56.579Z,513.7500
2024-05-09T08:16:59.810Z,401.8750
2024-05-09T08:18:03.237Z,429.6875
2024-05-09T08:19:06.682Z,524.6875
2024-05-09T08:20:11.355Z,504.3750
2024-05-09T08:21:13.120Z,448.6765
2024-05-09T08:22:12.891Z,406.9853
2024-05-09T08:23:16.095Z,373.1250
2024-05-09T08:24:19.333Z,365.9375
2024-05-09T08:25:22.618Z,375.6250
2024-05-09T08:26:25.836Z,343.7500
2024-05-09T08:27:29.136Z,290.3125
2024-05-09T08:28:32.394Z,255.9375
2024-05-09T08:29:35.604Z,249.3750
2024-05-09T08:30:38.951Z,271.8750
2024-05-09T08:31:42.276Z,321.5625
2024-05-09T08:32:45.736Z,343.1250
2024-05-09T08:33:49.092Z,337.5000
2024-05-09T08:34:52.536Z,317.5000
2024-05-09T08:35:55.806Z,272.8125
2024-05-09T08:37:03.913Z,251.8750
2024-05-09T08:38:01.342Z,243.2812
2024-05-09T08:39:04.643Z,260.9375
2024-05-09T08:40:11.133Z,345.3125
2024-05-09T08:41:10.156Z,484.4531
2024-05-09T08:42:13.396Z,482.1875
2024-05-09T08:43:16.831Z,436.2500
2024-05-09T08:44:16.612Z,479.4485
2024-05-09T08:45:16.738Z,560.1838
2024-05-09T08:46:20.129Z,656.8750
2024-05-09T08:47:20.007Z,719.0073
2024-05-09T08:48:23.510Z,769.0625
2024-05-09T08:49:23.651Z,787.1691
2024-05-09T08:50:35.457Z,749.6875
2024-05-09T08:51:29.178Z,649.3359
2024-05-09T08:52:32.434Z,576.8750
2024-05-09T08:53:35.646Z,566.2500
2024-05-09T08:54:38.909Z,625.6250
2024-05-09T08:55:43.769Z,640.0000
2024-05-09T08:56:44.043Z,645.5515
2024-05-09T08:57:47.364Z,642.1875
2024-05-09T08:58:50.542Z,623.4375
2024-05-09T08:59:53.766Z,587.5000
2024-05-09T09:00:57.123Z,611.8750
2024-05-09T09:02:00.489Z,581.5625
2024-05-09T09:03:03.819Z,513.7500
2024-05-09T09:04:07.338Z,526.8750
2024-05-09T09:05:07.241Z,536.3603
2024-05-09T09:06:10.486Z,505.0000
2024-05-09T09:07:13.847Z,417.8125
2024-05-09T09:08:17.080Z,330.3125
2024-05-09T09:09:20.368Z,283.7500
2024-05-09T09:10:29.804Z,255.0000
2024-05-09T09:11:25.723Z,247.5000
2024-05-09T09:12:28.978Z,251.5625
2024-05-09T09:13:32.217Z,266.8750
2024-05-09T09:14:35.528Z,300.9375
2024-05-09T09:15:38.740Z,376.8750
2024-05-09T09:16:41.936Z,453.1250
2024-05-09T09:17:45.198Z,481.5625
2024-05-09T09:18:48.524Z,510.9375
2024-05-09T09:19:48.469Z,524.4485
2024-05-09T09:20:51.762Z,512.8125
2024-05-09T09:21:55.018Z,478.1250
2024-05-09T09:22:58.252Z,467.1875
2024-05-09T09:24:01.612Z,497.8125
2024-05-09T09:25:04.993Z,480.0000
2024-05-09T09:26:08.303Z,465.0000
2024-05-09T09:27:11.546Z,566.2500
2024-05-09T09:28:14.956Z,722.8125
2024-05-09T09:29:18.185Z,911.8750
2024-05-09T09:30:34.005Z,981.8750
2024-05-09T09:31:23.598Z,963.6328
2024-05-09T09:32:23.598Z,915.8823
2024-05-09T09:33:40.946Z,847.5852
2024-05-09T09:34:43.301Z,841.5000
2024-05-09T09:35:45.431Z,808.2000
2024-05-09T09:36:45.584Z,770.8594
2024-05-09T09:37:47.764Z,733.2750
2024-05-09T09:38:49.835Z,681.5250
2024-05-09T09:39:51.985Z,618.0750
2024-05-09T09:40:54.204Z,645.7500
2024-05-09T09:41:56.308Z,717.9750
2024-05-09T09:42:58.506Z,794.7000
2024-05-09T09:44:00.620Z,831.6000
2024-05-09T09:45:05.460Z,802.1250
2024-05-09T09:46:03.149Z,787.7446
2024-05-09T09:47:05.290Z,794.4750
2024-05-09T09:48:07.522Z,776.4750
2024-05-09T09:49:09.645Z,782.7750
2024-05-09T09:50:14.634Z,801.0000
2024-05-09T09:51:12.368Z,800.7955
2024-05-09T09:52:14.659Z,751.2750
2024-05-09T09:53:16.809Z,706.0500
2024-05-09T09:54:18.921Z,759.6000
2024-05-09T09:55:21.096Z,901.3500
2024-05-09T09:56:23.226Z,1316.9250
2024-05-09T09:57:25.349Z,1301.8500
2024-05-09T09:58:27.699Z,1166.4000
2024-05-09T09:59:29.784Z,1063.8000
2024-05-09T10:00:33.528Z,1260.2250
2024-05-09T10:01:33.797Z,1135.0781
2024-05-09T10:02:35.940Z,1211.1750
2024-05-09T10:03:38.341Z,1202.8500
2024-05-09T10:04:38.289Z,1207.9688
2024-05-09T10:05:42.097Z,1253.9062
2024-05-09T10:06:41.361Z,1248.5055
2024-05-09T10:07:43.472Z,1240.4250
2024-05-09T10:08:45.609Z,1270.1250
2024-05-09T10:09:47.768Z,1593.0000
2024-05-09T10:10:50.242Z,1362.6000
2024-05-09T10:11:52.360Z,1321.6406
2024-05-09T10:12:51.833Z,1564.4836
2024-05-09T10:13:54.034Z,1521.2250
2024-05-09T10:14:56.158Z,1386.9000
2024-05-09T10:15:58.415Z,1450.3500
2024-05-09T10:17:00.659Z,1300.7250
2024-05-09T10:18:03.095Z,1198.1250
2024-05-09T10:19:05.363Z,1197.9000
2024-05-09T10:20:14.657Z,1222.4250
2024-05-09T10:21:08.078Z,1306.2784
2024-05-09T10:22:10.344Z,1564.2000
2024-05-09T10:23:12.621Z,1382.8500
2024-05-09T10:24:14.702Z,1401.0750
2024-05-09T10:25:16.874Z,1474.4250
2024-05-09T10:26:19.112Z,1556.1000
2024-05-09T10:27:21.311Z,1653.7500
2024-05-09T10:28:23.546Z,1571.4000
2024-05-09T10:29:25.718Z,1728.4500
2024-05-09T10:30:34.082Z,1532.0250
2024-05-09T10:31:28.561Z,1374.5454
2024-05-09T10:32:30.745Z,1289.0250
2024-05-09T10:33:33.103Z,1261.3500
2024-05-09T10:34:35.414Z,1258.2000
2024-05-09T10:35:37.570Z,1259.3250
2024-05-09T10:36:39.873Z,1168.2000
2024-05-09T10:37:42.025Z,1099.8000
2024-05-09T10:38:44.138Z,985.2750
2024-05-09T10:39:46.341Z,877.7250
2024-05-09T10:40:48.447Z,815.8500
2024-05-09T10:41:50.731Z,777.1500
2024-05-09T10:42:52.900Z,792.4500
2024-05-09T10:43:55.024Z,807.9750
2024-05-09T10:44:57.120Z,740.2500
2024-05-09T10:45:59.265Z,668.9250
2024-05-09T10:47:01.401Z,660.1500
2024-05-09T10:48:03.601Z,618.7500
2024-05-09T10:49:07.875Z,593.3250
2024-05-09T10:50:15.737Z,562.0312
2024-05-09T10:51:08.249Z,589.3466
2024-05-09T10:52:10.473Z,693.4500
2024-05-09T10:53:12.582Z,831.8250
2024-05-09T10:54:14.692Z,969.3000
2024-05-09T10:55:17.079Z,1256.6250
2024-05-09T10:56:19.183Z,1298.7000
2024-05-09T10:57:21.343Z,1271.2500
2024-05-09T10:58:23.581Z,1294.4250
2024-05-09T10:59:25.689Z,1427.4000
2024-05-09T11:00:33.595Z,1447.2000
2024-05-09T11:01:28.758Z,1382.2159
2024-05-09T11:02:31.122Z,1423.8000
2024-05-09T11:03:31.117Z,1418.6719
2024-05-09T11:04:33.337Z,1523.9250
2024-05-09T11:05:35.528Z,1856.0250
2024-05-09T11:06:37.690Z,1734.0750
2024-05-09T11:07:40.025Z,1638.9000
2024-05-09T11:08:42.216Z,1466.1000
2024-05-09T11:09:44.451Z,1360.1250
2024-05-09T11:10:46.702Z,1347.7500
2024-05-09T11:11:48.879Z,1379.0250
2024-05-09T11:12:51.180Z,1304.7750
2024-05-09T11:13:53.263Z,1219.5000
2024-05-09T11:14:55.492Z,1104.7500
2024-05-09T11:15:57.603Z,1021.7250
2024-05-09T11:16:58.245Z,1004.5312
2024-05-09T11:18:00.583Z,1097.7750
2024-05-09T11:19:02.900Z,1111.5000
2024-05-09T11:20:13.298Z,1067.8500
2024-05-09T11:21:05.697Z,1067.4716
2024-05-09T11:22:07.925Z,1273.5000
2024-05-09T11:23:10.118Z,2204.3250
2024-05-09T11:24:12.194Z,4335.0752
2024-05-09T11:25:14.418Z,1948.5000
2024-05-09T11:26:16.541Z,1465.2000
2024-05-09T11:27:18.655Z,1351.8000
2024-05-09T11:28:20.903Z,1373.8500
2024-05-09T11:29:23.018Z,1248.0750
2024-05-09T11:30:30.115Z,1059.0750
2024-05-09T11:31:25.972Z,869.0625
2024-05-09T11:32:28.327Z,782.1000
2024-05-09T11:33:30.634Z,794.9250
2024-05-09T11:34:32.901Z,844.6500
2024-05-09T11:35:35.058Z,861.7500
2024-05-09T11:36:37.207Z,858.1500
2024-05-09T11:37:39.346Z,853.8750
2024-05-09T11:38:41.473Z,861.0750
2024-05-09T11:39:43.612Z,918.2250
2024-05-09T11:40:45.728Z,1034.1000
2024-05-09T11:41:47.861Z,1152.6750
2024-05-09T11:42:52.498Z,1186.6500
2024-05-09T11:43:50.180Z,1249.2391
2024-05-09T11:44:52.287Z,1310.8500
2024-05-09T11:45:54.431Z,1243.8000
2024-05-09T11:46:56.508Z,1141.2000
2024-05-09T11:47:58.846Z,1055.4750
2024-05-09T11:49:01.110Z,983.9250
2024-05-09T11:50:04.365Z,921.6000
2024-05-09T11:51:04.765Z,867.9620
2024-05-09T11:52:06.909Z,829.1250
2024-05-09T11:53:09.049Z,778.9500
2024-05-09T11:54:11.126Z,701.7750
2024-05-09T11:55:13.320Z,605.2500
2024-05-09T11:56:15.432Z,536.1750
2024-05-09T11:57:17.522Z,522.4500
2024-05-09T11:58:19.854Z,551.2500
2024-05-09T11:59:22.118Z,576.4500
2024-05-09T12:00:33.754Z,610.8750
2024-05-09T12:01:27.510Z,675.5114
2024-05-09T12:02:25.079Z,737.3641
2024-05-09T12:03:27.352Z,784.3500
2024-05-09T12:04:29.581Z,804.1500
2024-05-09T12:05:32.035Z,810.6750
2024-05-09T12:06:31.899Z,825.7031
2024-05-09T12:07:34.037Z,879.7500
2024-05-09T12:08:36.152Z,1001.7000
2024-05-09T12:09:38.401Z,1277.7750
2024-05-09T12:10:40.769Z,2217.8250
2024-05-09T12:11:40.525Z,1711.6406
2024-05-09T12:12:42.642Z,1306.3500
2024-05-09T12:13:44.791Z,1214.5500
2024-05-09T12:14:46.901Z,1165.2750
2024-05-09T12:15:49.044Z,1116.9000
2024-05-09T12:16:51.275Z,1029.3750
2024-05-09T12:17:53.573Z,951.7500
2024-05-09T12:18:55.984Z,917.1000
2024-05-09T12:19:58.182Z,922.9500
2024-05-09T12:21:00.305Z,941.4000
2024-05-09T12:22:02.466Z,969.3000
2024-05-09T12:23:04.613Z,997.4250
2024-05-09T12:24:06.687Z,1019.4750
2024-05-09T12:25:08.898Z,1023.9750
2024-05-09T12:26:11.075Z,1041.5250
2024-05-09T12:27:11.140Z,1099.2188
2024-05-09T12:28:13.314Z,1185.9750
2024-05-09T12:29:15.451Z,1352.9250
2024-05-09T12:30:29.034Z,1932.7500
2024-05-09T12:31:18.214Z,1969.7727